KEAR

Kearney Regional Airport

Airport
ICAO code
KEAR
Summary
ICAO Region
NAM
ICAO Territory
Location

Kearney, Nebraska,

Elevation
2131 ft
Coordinates
40° 43' 32" N , 99° 0' 31" W
KCC
Metar
Observation
KEAR 072256Z AUTO 00000KT 10SM CLR 06/M01 A3022 RMK AO2 SLP249 T00561006
Station
Kearney, Kearney Municipal Airport
Date/Time
2023-02-07 22:56:00
Wind direction
Wind speed
00 kts
Lowest cloud amount
n/a
Temperature
5.6°C
Dew point
-0.6°C
Humidity
64%
Weather condition
n/a

Description

Kearney Regional Airport is a public use airport located 7 km northeast of the central business district of Kearney, a city in Buffalo County, Nebraska.

Climatology

Humid continental climate (Köppen climate classification Dfa) - characterized by four seasons: cold, windy, snowy winters, mild springs, hot, humid summers, and crisp and relatively short autumns. Precipitation reaches its lowest in January and February and peaks in summer and latter half of spring.

Airport map

Aerial View

SKYbrary Partners:

Safety knowledge contributed by: